sensor_id;sensor_type;location;lat;lon;timestamp;P1;durP1;ratioP1;P2;durP2;ratioP2
23684;SDS011;12020;51.384;6.908;2023-12-04T00:00:12;15.60;;;12.85;;
23684;SDS011;12020;51.384;6.908;2023-12-04T00:02:42;15.30;;;12.30;;
23684;SDS011;12020;51.384;6.908;2023-12-04T00:07:39;14.82;;;12.00;;
23684;SDS011;12020;51.384;6.908;2023-12-04T00:10:12;15.48;;;12.55;;
23684;SDS011;12020;51.384;6.908;2023-12-04T00:12:55;16.35;;;12.27;;
23684;SDS011;12020;51.384;6.908;2023-12-04T00:15:25;16.25;;;12.35;;
23684;SDS011;12020;51.384;6.908;2023-12-04T00:17:59;14.02;;;12.18;;
23684;SDS011;12020;51.384;6.908;2023-12-04T00:20:29;15.20;;;12.13;;
23684;SDS011;12020;51.384;6.908;2023-12-04T00:23:00;15.05;;;12.50;;
23684;SDS011;12020;51.384;6.908;2023-12-04T00:27:57;15.00;;;12.18;;
23684;SDS011;12020;51.384;6.908;2023-12-04T00:30:30;14.70;;;11.80;;
23684;SDS011;12020;51.384;6.908;2023-12-04T00:35:28;14.13;;;11.40;;
23684;SDS011;12020;51.384;6.908;2023-12-04T00:37:55;14.30;;;11.30;;
23684;SDS011;12020;51.384;6.908;2023-12-04T00:40:23;14.48;;;12.02;;
23684;SDS011;12020;51.384;6.908;2023-12-04T00:42:50;13.55;;;11.43;;
23684;SDS011;12020;51.384;6.908;2023-12-04T00:45:16;14.63;;;11.95;;
23684;SDS011;12020;51.384;6.908;2023-12-04T00:47:45;14.57;;;11.93;;
23684;SDS011;12020;51.384;6.908;2023-12-04T00:50:17;15.05;;;11.73;;
23684;SDS011;12020;51.384;6.908;2023-12-04T00:52:45;13.63;;;11.30;;
23684;SDS011;12020;51.384;6.908;2023-12-04T00:55:12;14.40;;;11.65;;
23684;SDS011;12020;51.384;6.908;2023-12-04T01:00:08;13.85;;;11.32;;
23684;SDS011;12020;51.384;6.908;2023-12-04T01:02:35;12.98;;;10.45;;
23684;SDS011;12020;51.384;6.908;2023-12-04T01:07:35;12.63;;;10.23;;
23684;SDS011;12020;51.384;6.908;2023-12-04T01:10:03;13.35;;;10.82;;
23684;SDS011;12020;51.384;6.908;2023-12-04T01:12:32;12.60;;;10.15;;
23684;SDS011;12020;51.384;6.908;2023-12-04T01:15:01;13.85;;;10.57;;
23684;SDS011;12020;51.384;6.908;2023-12-04T01:17:30;12.15;;;10.43;;
23684;SDS011;12020;51.384;6.908;2023-12-04T01:20:00;12.52;;;10.27;;
23684;SDS011;12020;51.384;6.908;2023-12-04T01:22:27;13.20;;;10.65;;
23684;SDS011;12020;51.384;6.908;2023-12-04T01:24:58;12.18;;;10.40;;
23684;SDS011;12020;51.384;6.908;2023-12-04T01:27:24;11.52;;;9.85;;
23684;SDS011;12020;51.384;6.908;2023-12-04T01:29:52;12.23;;;10.43;;
23684;SDS011;12020;51.384;6.908;2023-12-04T01:34:50;10.98;;;9.45;;
23684;SDS011;12020;51.384;6.908;2023-12-04T01:37:22;12.55;;;10.02;;
23684;SDS011;12020;51.384;6.908;2023-12-04T01:39:51;12.32;;;10.23;;
23684;SDS011;12020;51.384;6.908;2023-12-04T01:42:18;11.98;;;9.60;;
23684;SDS011;12020;51.384;6.908;2023-12-04T01:44:44;10.85;;;9.25;;
23684;SDS011;12020;51.384;6.908;2023-12-04T01:47:12;12.03;;;9.93;;
23684;SDS011;12020;51.384;6.908;2023-12-04T01:49:43;11.52;;;9.80;;
23684;SDS011;12020;51.384;6.908;2023-12-04T01:52:12;11.80;;;9.95;;
23684;SDS011;12020;51.384;6.908;2023-12-04T01:54:39;10.97;;;9.50;;
23684;SDS011;12020;51.384;6.908;2023-12-04T01:59:36;11.00;;;9.45;;
23684;SDS011;12020;51.384;6.908;2023-12-04T02:02:03;12.20;;;9.80;;
23684;SDS011;12020;51.384;6.908;2023-12-04T02:04:32;11.73;;;9.93;;
23684;SDS011;12020;51.384;6.908;2023-12-04T02:06:59;10.93;;;9.63;;
23684;SDS011;12020;51.384;6.908;2023-12-04T02:09:34;10.93;;;9.73;;
23684;SDS011;12020;51.384;6.908;2023-12-04T02:12:04;11.10;;;9.43;;
23684;SDS011;12020;51.384;6.908;2023-12-04T02:14:31;11.20;;;9.43;;
23684;SDS011;12020;51.384;6.908;2023-12-04T02:16:57;11.23;;;9.65;;
23684;SDS011;12020;51.384;6.908;2023-12-04T02:19:26;11.75;;;9.25;;
23684;SDS011;12020;51.384;6.908;2023-12-04T02:21:52;10.73;;;9.13;;
23684;SDS011;12020;51.384;6.908;2023-12-04T02:24:22;11.65;;;9.10;;
23684;SDS011;12020;51.384;6.908;2023-12-04T02:29:46;11.40;;;9.30;;
23684;SDS011;12020;51.384;6.908;2023-12-04T02:32:18;9.82;;;8.60;;
23684;SDS011;12020;51.384;6.908;2023-12-04T02:34:47;10.65;;;9.25;;
23684;SDS011;12020;51.384;6.908;2023-12-04T02:37:15;10.50;;;9.13;;
23684;SDS011;12020;51.384;6.908;2023-12-04T02:39:44;11.43;;;8.98;;
23684;SDS011;12020;51.384;6.908;2023-12-04T02:42:13;10.77;;;9.00;;
23684;SDS011;12020;51.384;6.908;2023-12-04T02:44:41;10.60;;;9.02;;
23684;SDS011;12020;51.384;6.908;2023-12-04T02:47:08;10.00;;;8.82;;
23684;SDS011;12020;51.384;6.908;2023-12-04T02:49:37;10.48;;;8.63;;
23684;SDS011;12020;51.384;6.908;2023-12-04T02:52:03;9.80;;;8.30;;
23684;SDS011;12020;51.384;6.908;2023-12-04T02:54:30;11.30;;;8.90;;
23684;SDS011;12020;51.384;6.908;2023-12-04T02:57:06;10.15;;;8.77;;
23684;SDS011;12020;51.384;6.908;2023-12-04T02:59:32;10.52;;;8.60;;
23684;SDS011;12020;51.384;6.908;2023-12-04T03:01:58;9.90;;;8.70;;
23684;SDS011;12020;51.384;6.908;2023-12-04T03:04:26;11.02;;;9.10;;
23684;SDS011;12020;51.384;6.908;2023-12-04T03:06:56;11.60;;;8.77;;
23684;SDS011;12020;51.384;6.908;2023-12-04T03:09:29;10.10;;;8.65;;
23684;SDS011;12020;51.384;6.908;2023-12-04T03:11:55;10.80;;;8.73;;
23684;SDS011;12020;51.384;6.908;2023-12-04T03:14:23;9.33;;;8.33;;
23684;SDS011;12020;51.384;6.908;2023-12-04T03:16:54;10.10;;;8.13;;
23684;SDS011;12020;51.384;6.908;2023-12-04T03:19:20;9.90;;;8.40;;
23684;SDS011;12020;51.384;6.908;2023-12-04T03:21:48;9.48;;;7.93;;
23684;SDS011;12020;51.384;6.908;2023-12-04T03:24:14;9.55;;;8.05;;
23684;SDS011;12020;51.384;6.908;2023-12-04T03:29:11;9.40;;;7.97;;
23684;SDS011;12020;51.384;6.908;2023-12-04T03:31:40;9.32;;;8.00;;
23684;SDS011;12020;51.384;6.908;2023-12-04T03:34:15;9.70;;;7.60;;
23684;SDS011;12020;51.384;6.908;2023-12-04T03:36:42;9.82;;;7.63;;
23684;SDS011;12020;51.384;6.908;2023-12-04T03:41:42;8.50;;;7.60;;
23684;SDS011;12020;51.384;6.908;2023-12-04T03:44:10;8.27;;;7.00;;
23684;SDS011;12020;51.384;6.908;2023-12-04T03:46:37;8.95;;;7.55;;
23684;SDS011;12020;51.384;6.908;2023-12-04T03:49:04;8.90;;;7.38;;
23684;SDS011;12020;51.384;6.908;2023-12-04T03:51:31;8.25;;;7.18;;
23684;SDS011;12020;51.384;6.908;2023-12-04T03:53:57;9.07;;;6.82;;
23684;SDS011;12020;51.384;6.908;2023-12-04T03:56:28;8.63;;;7.00;;
23684;SDS011;12020;51.384;6.908;2023-12-04T03:58:56;7.90;;;6.90;;
23684;SDS011;12020;51.384;6.908;2023-12-04T04:01:23;8.00;;;6.93;;
23684;SDS011;12020;51.384;6.908;2023-12-04T04:03:51;9.10;;;7.13;;
23684;SDS011;12020;51.384;6.908;2023-12-04T04:06:18;7.32;;;6.35;;
23684;SDS011;12020;51.384;6.908;2023-12-04T04:08:44;7.03;;;6.32;;
23684;SDS011;12020;51.384;6.908;2023-12-04T04:11:13;7.03;;;6.32;;
23684;SDS011;12020;51.384;6.908;2023-12-04T04:13:40;6.90;;;6.20;;
23684;SDS011;12020;51.384;6.908;2023-12-04T04:16:13;7.90;;;6.38;;
23684;SDS011;12020;51.384;6.908;2023-12-04T04:18:53;7.57;;;6.10;;
23684;SDS011;12020;51.384;6.908;2023-12-04T04:21:19;8.25;;;6.35;;
23684;SDS011;12020;51.384;6.908;2023-12-04T04:23:47;7.82;;;6.35;;
23684;SDS011;12020;51.384;6.908;2023-12-04T04:26:23;7.30;;;6.18;;
23684;SDS011;12020;51.384;6.908;2023-12-04T04:28:58;6.68;;;5.97;;
23684;SDS011;12020;51.384;6.908;2023-12-04T04:31:33;7.38;;;6.25;;
23684;SDS011;12020;51.384;6.908;2023-12-04T04:33:59;7.10;;;6.10;;
23684;SDS011;12020;51.384;6.908;2023-12-04T04:36:26;7.57;;;6.18;;
23684;SDS011;12020;51.384;6.908;2023-12-04T04:38:56;7.13;;;6.07;;
23684;SDS011;12020;51.384;6.908;2023-12-04T04:41:23;9.40;;;6.78;;
23684;SDS011;12020;51.384;6.908;2023-12-04T04:43:51;7.40;;;6.00;;
23684;SDS011;12020;51.384;6.908;2023-12-04T04:46:19;7.63;;;6.28;;
23684;SDS011;12020;51.384;6.908;2023-12-04T04:48:47;6.85;;;6.03;;
23684;SDS011;12020;51.384;6.908;2023-12-04T04:53:43;6.57;;;5.82;;
23684;SDS011;12020;51.384;6.908;2023-12-04T04:58:39;6.13;;;5.53;;
23684;SDS011;12020;51.384;6.908;2023-12-04T05:01:19;7.60;;;6.13;;
23684;SDS011;12020;51.384;6.908;2023-12-04T05:03:46;7.03;;;6.32;;
23684;SDS011;12020;51.384;6.908;2023-12-04T05:06:13;7.53;;;6.47;;
23684;SDS011;12020;51.384;6.908;2023-12-04T05:08:41;6.85;;;6.13;;
23684;SDS011;12020;51.384;6.908;2023-12-04T05:11:10;7.55;;;6.20;;
23684;SDS011;12020;51.384;6.908;2023-12-04T05:13:53;6.93;;;6.22;;
23684;SDS011;12020;51.384;6.908;2023-12-04T05:16:19;7.72;;;6.72;;
23684;SDS011;12020;51.384;6.908;2023-12-04T05:18:47;8.70;;;6.57;;
23684;SDS011;12020;51.384;6.908;2023-12-04T05:21:15;7.32;;;6.40;;
23684;SDS011;12020;51.384;6.908;2023-12-04T05:23:41;7.95;;;6.78;;
23684;SDS011;12020;51.384;6.908;2023-12-04T05:26:07;7.63;;;6.72;;
23684;SDS011;12020;51.384;6.908;2023-12-04T05:28:34;8.15;;;6.95;;
23684;SDS011;12020;51.384;6.908;2023-12-04T05:31:00;7.90;;;6.95;;
23684;SDS011;12020;51.384;6.908;2023-12-04T05:33:29;8.85;;;7.13;;
23684;SDS011;12020;51.384;6.908;2023-12-04T05:35:55;9.25;;;7.18;;
23684;SDS011;12020;51.384;6.908;2023-12-04T05:38:23;8.20;;;7.32;;
23684;SDS011;12020;51.384;6.908;2023-12-04T05:40:49;10.15;;;7.65;;
23684;SDS011;12020;51.384;6.908;2023-12-04T05:43:15;8.50;;;7.30;;
23684;SDS011;12020;51.384;6.908;2023-12-04T05:45:43;8.48;;;7.43;;
23684;SDS011;12020;51.384;6.908;2023-12-04T05:50:48;9.53;;;7.67;;
23684;SDS011;12020;51.384;6.908;2023-12-04T05:53:15;8.73;;;7.68;;
23684;SDS011;12020;51.384;6.908;2023-12-04T05:55:44;9.00;;;7.80;;
23684;SDS011;12020;51.384;6.908;2023-12-04T05:58:13;9.30;;;7.97;;
23684;SDS011;12020;51.384;6.908;2023-12-04T06:00:47;9.68;;;8.05;;
23684;SDS011;12020;51.384;6.908;2023-12-04T06:03:13;9.13;;;8.20;;
23684;SDS011;12020;51.384;6.908;2023-12-04T06:05:45;9.30;;;8.30;;
23684;SDS011;12020;51.384;6.908;2023-12-04T06:08:11;10.30;;;8.60;;
23684;SDS011;12020;51.384;6.908;2023-12-04T06:10:39;11.25;;;8.13;;
23684;SDS011;12020;51.384;6.908;2023-12-04T06:13:09;11.00;;;8.48;;
23684;SDS011;12020;51.384;6.908;2023-12-04T06:15:38;9.88;;;8.00;;
23684;SDS011;12020;51.384;6.908;2023-12-04T06:18:17;9.75;;;8.35;;
23684;SDS011;12020;51.384;6.908;2023-12-04T06:20:46;10.77;;;8.82;;
23684;SDS011;12020;51.384;6.908;2023-12-04T06:23:13;8.82;;;7.90;;
23684;SDS011;12020;51.384;6.908;2023-12-04T06:28:41;9.20;;;8.10;;
23684;SDS011;12020;51.384;6.908;2023-12-04T06:31:23;9.55;;;8.13;;
23684;SDS011;12020;51.384;6.908;2023-12-04T06:33:51;9.40;;;7.93;;
23684;SDS011;12020;51.384;6.908;2023-12-04T06:36:18;10.05;;;8.32;;
23684;SDS011;12020;51.384;6.908;2023-12-04T06:43:49;9.98;;;8.07;;
23684;SDS011;12020;51.384;6.908;2023-12-04T06:46:16;10.10;;;8.30;;
23684;SDS011;12020;51.384;6.908;2023-12-04T06:48:58;10.23;;;8.70;;
23684;SDS011;12020;51.384;6.908;2023-12-04T06:51:25;9.60;;;8.10;;
23684;SDS011;12020;51.384;6.908;2023-12-04T06:54:02;9.77;;;8.60;;
23684;SDS011;12020;51.384;6.908;2023-12-04T06:56:29;9.40;;;8.10;;
23684;SDS011;12020;51.384;6.908;2023-12-04T06:58:56;9.32;;;8.15;;
23684;SDS011;12020;51.384;6.908;2023-12-04T07:01:31;10.52;;;8.23;;
23684;SDS011;12020;51.384;6.908;2023-12-04T07:04:02;9.73;;;8.18;;
23684;SDS011;12020;51.384;6.908;2023-12-04T07:06:36;9.75;;;8.32;;
23684;SDS011;12020;51.384;6.908;2023-12-04T07:09:02;9.60;;;8.38;;
23684;SDS011;12020;51.384;6.908;2023-12-04T07:11:29;9.35;;;7.63;;
23684;SDS011;12020;51.384;6.908;2023-12-04T07:13:59;9.68;;;8.38;;
23684;SDS011;12020;51.384;6.908;2023-12-04T07:16:26;8.50;;;7.55;;
23684;SDS011;12020;51.384;6.908;2023-12-04T07:18:52;9.93;;;7.63;;
23684;SDS011;12020;51.384;6.908;2023-12-04T07:21:20;8.68;;;7.40;;
23684;SDS011;12020;51.384;6.908;2023-12-04T07:23:47;8.40;;;7.50;;
23684;SDS011;12020;51.384;6.908;2023-12-04T07:26:13;8.40;;;7.03;;
23684;SDS011;12020;51.384;6.908;2023-12-04T07:28:46;7.72;;;6.82;;
23684;SDS011;12020;51.384;6.908;2023-12-04T07:31:12;8.57;;;7.00;;
23684;SDS011;12020;51.384;6.908;2023-12-04T07:33:38;7.70;;;6.68;;
23684;SDS011;12020;51.384;6.908;2023-12-04T07:36:11;10.50;;;8.43;;
23684;SDS011;12020;51.384;6.908;2023-12-04T07:38:40;7.63;;;6.68;;
23684;SDS011;12020;51.384;6.908;2023-12-04T07:41:05;9.40;;;8.40;;
23684;SDS011;12020;51.384;6.908;2023-12-04T07:43:31;8.13;;;6.93;;
23684;SDS011;12020;51.384;6.908;2023-12-04T07:45:58;8.90;;;7.43;;
23684;SDS011;12020;51.384;6.908;2023-12-04T07:48:23;7.57;;;6.57;;
23684;SDS011;12020;51.384;6.908;2023-12-04T07:50:51;7.75;;;6.68;;
23684;SDS011;12020;51.384;6.908;2023-12-04T07:53:21;8.25;;;7.05;;
23684;SDS011;12020;51.384;6.908;2023-12-04T07:55:47;7.78;;;6.60;;
23684;SDS011;12020;51.384;6.908;2023-12-04T07:58:19;7.55;;;6.45;;
23684;SDS011;12020;51.384;6.908;2023-12-04T08:00:47;7.15;;;6.35;;
23684;SDS011;12020;51.384;6.908;2023-12-04T08:03:18;7.63;;;6.65;;
23684;SDS011;12020;51.384;6.908;2023-12-04T08:05:50;7.50;;;6.70;;
23684;SDS011;12020;51.384;6.908;2023-12-04T08:08:16;8.63;;;6.43;;
23684;SDS011;12020;51.384;6.908;2023-12-04T08:10:42;7.35;;;6.32;;
23684;SDS011;12020;51.384;6.908;2023-12-04T08:13:08;7.90;;;6.82;;
23684;SDS011;12020;51.384;6.908;2023-12-04T08:15:35;8.27;;;6.80;;
23684;SDS011;12020;51.384;6.908;2023-12-04T08:18:04;8.07;;;6.47;;
23684;SDS011;12020;51.384;6.908;2023-12-04T08:20:32;7.78;;;6.22;;
23684;SDS011;12020;51.384;6.908;2023-12-04T08:22:59;8.40;;;6.75;;
23684;SDS011;12020;51.384;6.908;2023-12-04T08:25:26;6.85;;;6.15;;
23684;SDS011;12020;51.384;6.908;2023-12-04T08:27:52;7.05;;;6.10;;
23684;SDS011;12020;51.384;6.908;2023-12-04T08:30:18;8.68;;;6.55;;
23684;SDS011;12020;51.384;6.908;2023-12-04T08:32:44;8.30;;;6.38;;
23684;SDS011;12020;51.384;6.908;2023-12-04T08:35:12;7.45;;;6.05;;
23684;SDS011;12020;51.384;6.908;2023-12-04T08:37:39;7.00;;;6.00;;
23684;SDS011;12020;51.384;6.908;2023-12-04T08:40:11;7.05;;;5.97;;
23684;SDS011;12020;51.384;6.908;2023-12-04T08:42:42;7.55;;;6.25;;
23684;SDS011;12020;51.384;6.908;2023-12-04T08:45:11;7.97;;;6.35;;
23684;SDS011;12020;51.384;6.908;2023-12-04T08:47:39;6.45;;;5.72;;
23684;SDS011;12020;51.384;6.908;2023-12-04T08:50:09;6.95;;;5.95;;
23684;SDS011;12020;51.384;6.908;2023-12-04T08:52:35;8.10;;;5.90;;
23684;SDS011;12020;51.384;6.908;2023-12-04T08:55:08;6.57;;;5.70;;
23684;SDS011;12020;51.384;6.908;2023-12-04T08:57:38;6.57;;;5.80;;
23684;SDS011;12020;51.384;6.908;2023-12-04T09:00:03;7.15;;;5.63;;
23684;SDS011;12020;51.384;6.908;2023-12-04T09:02:30;6.05;;;5.30;;
23684;SDS011;12020;51.384;6.908;2023-12-04T09:04:56;6.15;;;5.50;;
23684;SDS011;12020;51.384;6.908;2023-12-04T09:07:25;5.50;;;4.90;;
23684;SDS011;12020;51.384;6.908;2023-12-04T09:10:01;6.20;;;5.22;;
23684;SDS011;12020;51.384;6.908;2023-12-04T09:12:29;6.93;;;5.35;;
23684;SDS011;12020;51.384;6.908;2023-12-04T09:14:59;6.13;;;5.43;;
23684;SDS011;12020;51.384;6.908;2023-12-04T09:17:29;6.90;;;5.30;;
23684;SDS011;12020;51.384;6.908;2023-12-04T09:20:06;6.30;;;5.20;;
23684;SDS011;12020;51.384;6.908;2023-12-04T09:22:32;5.90;;;5.30;;
23684;SDS011;12020;51.384;6.908;2023-12-04T09:25:00;5.80;;;5.00;;
23684;SDS011;12020;51.384;6.908;2023-12-04T09:27:26;5.35;;;4.72;;
23684;SDS011;12020;51.384;6.908;2023-12-04T09:29:52;6.35;;;5.05;;
23684;SDS011;12020;51.384;6.908;2023-12-04T09:32:19;6.13;;;5.20;;
23684;SDS011;12020;51.384;6.908;2023-12-04T09:34:49;5.40;;;4.90;;
23684;SDS011;12020;51.384;6.908;2023-12-04T09:37:16;6.70;;;5.25;;
23684;SDS011;12020;51.384;6.908;2023-12-04T09:39:43;5.88;;;4.80;;
23684;SDS011;12020;51.384;6.908;2023-12-04T09:42:16;6.40;;;5.15;;
23684;SDS011;12020;51.384;6.908;2023-12-04T09:44:49;5.07;;;4.40;;
23684;SDS011;12020;51.384;6.908;2023-12-04T09:47:20;5.25;;;4.72;;
23684;SDS011;12020;51.384;6.908;2023-12-04T09:49:47;5.72;;;4.93;;
23684;SDS011;12020;51.384;6.908;2023-12-04T09:52:16;5.32;;;4.60;;
23684;SDS011;12020;51.384;6.908;2023-12-04T09:54:45;5.60;;;4.78;;
23684;SDS011;12020;51.384;6.908;2023-12-04T09:57:11;5.13;;;4.47;;
23684;SDS011;12020;51.384;6.908;2023-12-04T09:59:39;4.93;;;4.43;;
23684;SDS011;12020;51.384;6.908;2023-12-04T10:02:12;5.22;;;4.57;;
23684;SDS011;12020;51.384;6.908;2023-12-04T10:04:45;6.10;;;5.07;;
23684;SDS011;12020;51.384;6.908;2023-12-04T10:07:14;5.97;;;4.80;;
23684;SDS011;12020;51.384;6.908;2023-12-04T10:09:43;5.50;;;4.65;;
23684;SDS011;12020;51.384;6.908;2023-12-04T10:12:11;5.47;;;4.60;;
23684;SDS011;12020;51.384;6.908;2023-12-04T10:14:36;6.00;;;4.93;;
23684;SDS011;12020;51.384;6.908;2023-12-04T10:17:13;6.97;;;4.93;;
23684;SDS011;12020;51.384;6.908;2023-12-04T10:19:41;5.15;;;4.57;;
23684;SDS011;12020;51.384;6.908;2023-12-04T10:22:08;6.25;;;4.93;;
23684;SDS011;12020;51.384;6.908;2023-12-04T10:24:39;6.20;;;5.15;;
23684;SDS011;12020;51.384;6.908;2023-12-04T10:27:07;6.97;;;5.20;;
23684;SDS011;12020;51.384;6.908;2023-12-04T10:29:48;6.60;;;5.10;;
23684;SDS011;12020;51.384;6.908;2023-12-04T10:32:19;5.95;;;5.30;;
23684;SDS011;12020;51.384;6.908;2023-12-04T10:34:51;8.07;;;5.60;;
23684;SDS011;12020;51.384;6.908;2023-12-04T10:37:24;7.25;;;5.80;;
23684;SDS011;12020;51.384;6.908;2023-12-04T10:39:52;5.97;;;5.38;;
23684;SDS011;12020;51.384;6.908;2023-12-04T10:42:31;6.03;;;5.20;;
23684;SDS011;12020;51.384;6.908;2023-12-04T10:44:59;6.03;;;5.28;;
23684;SDS011;12020;51.384;6.908;2023-12-04T10:47:26;5.95;;;5.18;;
23684;SDS011;12020;51.384;6.908;2023-12-04T10:49:55;6.22;;;5.55;;
23684;SDS011;12020;51.384;6.908;2023-12-04T10:52:28;7.13;;;5.55;;
23684;SDS011;12020;51.384;6.908;2023-12-04T10:54:58;7.40;;;5.60;;
23684;SDS011;12020;51.384;6.908;2023-12-04T10:57:31;7.30;;;5.88;;
23684;SDS011;12020;51.384;6.908;2023-12-04T11:00:05;6.13;;;5.10;;
23684;SDS011;12020;51.384;6.908;2023-12-04T11:02:35;7.13;;;6.05;;
23684;SDS011;12020;51.384;6.908;2023-12-04T11:05:14;6.63;;;5.93;;
23684;SDS011;12020;51.384;6.908;2023-12-04T11:07:53;6.80;;;6.10;;
23684;SDS011;12020;51.384;6.908;2023-12-04T11:10:22;8.38;;;6.03;;
23684;SDS011;12020;51.384;6.908;2023-12-04T11:12:56;7.10;;;6.40;;
23684;SDS011;12020;51.384;6.908;2023-12-04T11:15:31;8.18;;;6.75;;
23684;SDS011;12020;51.384;6.908;2023-12-04T11:18:04;7.93;;;6.80;;
23684;SDS011;12020;51.384;6.908;2023-12-04T11:20:32;8.52;;;6.90;;
23684;SDS011;12020;51.384;6.908;2023-12-04T11:23:07;7.78;;;6.50;;
23684;SDS011;12020;51.384;6.908;2023-12-04T11:25:34;9.00;;;6.60;;
23684;SDS011;12020;51.384;6.908;2023-12-04T11:28:01;7.20;;;6.50;;
23684;SDS011;12020;51.384;6.908;2023-12-04T11:30:34;8.40;;;6.82;;
23684;SDS011;12020;51.384;6.908;2023-12-04T11:33:04;7.82;;;6.50;;
23684;SDS011;12020;51.384;6.908;2023-12-04T11:35:33;7.38;;;6.20;;
23684;SDS011;12020;51.384;6.908;2023-12-04T11:38:01;7.43;;;6.63;;
23684;SDS011;12020;51.384;6.908;2023-12-04T11:40:34;7.75;;;6.50;;
23684;SDS011;12020;51.384;6.908;2023-12-04T11:43:25;7.60;;;6.80;;
23684;SDS011;12020;51.384;6.908;2023-12-04T11:46:08;8.68;;;6.82;;
23684;SDS011;12020;51.384;6.908;2023-12-04T11:48:39;7.93;;;6.78;;
23684;SDS011;12020;51.384;6.908;2023-12-04T11:51:05;7.63;;;6.83;;
23684;SDS011;12020;51.384;6.908;2023-12-04T11:53:38;7.93;;;7.07;;
23684;SDS011;12020;51.384;6.908;2023-12-04T11:56:09;7.43;;;6.70;;
23684;SDS011;12020;51.384;6.908;2023-12-04T11:58:43;9.00;;;7.93;;
23684;SDS011;12020;51.384;6.908;2023-12-04T12:01:11;8.18;;;7.25;;
23684;SDS011;12020;51.384;6.908;2023-12-04T12:03:37;8.07;;;7.15;;
23684;SDS011;12020;51.384;6.908;2023-12-04T12:06:03;9.98;;;7.53;;
23684;SDS011;12020;51.384;6.908;2023-12-04T12:08:31;8.88;;;7.90;;
23684;SDS011;12020;51.384;6.908;2023-12-04T12:11:03;9.15;;;7.78;;
23684;SDS011;12020;51.384;6.908;2023-12-04T12:13:31;9.50;;;8.00;;
23684;SDS011;12020;51.384;6.908;2023-12-04T12:15:58;9.48;;;7.68;;
23684;SDS011;12020;51.384;6.908;2023-12-04T12:18:27;9.40;;;8.07;;
23684;SDS011;12020;51.384;6.908;2023-12-04T12:20:56;9.02;;;7.93;;
23684;SDS011;12020;51.384;6.908;2023-12-04T12:23:23;9.02;;;7.95;;
23684;SDS011;12020;51.384;6.908;2023-12-04T12:25:50;9.13;;;8.00;;
23684;SDS011;12020;51.384;6.908;2023-12-04T12:43:53;9.65;;;8.00;;
23684;SDS011;12020;51.384;6.908;2023-12-04T12:57:03;8.88;;;7.95;;
23684;SDS011;12020;51.384;6.908;2023-12-04T13:02:48;8.65;;;7.75;;
23684;SDS011;12020;51.384;6.908;2023-12-04T13:05:26;9.55;;;8.30;;
23684;SDS011;12020;51.384;6.908;2023-12-04T13:11:35;8.82;;;7.93;;
23684;SDS011;12020;51.384;6.908;2023-12-04T13:14:54;9.35;;;7.80;;
23684;SDS011;12020;51.384;6.908;2023-12-04T13:27:00;9.43;;;7.57;;
23684;SDS011;12020;51.384;6.908;2023-12-04T13:36:29;8.20;;;6.80;;
23684;SDS011;12020;51.384;6.908;2023-12-04T13:39:03;8.55;;;6.65;;
23684;SDS011;12020;51.384;6.908;2023-12-04T13:41:31;7.15;;;6.45;;
23684;SDS011;12020;51.384;6.908;2023-12-04T14:23:34;7.65;;;6.15;;
23684;SDS011;12020;51.384;6.908;2023-12-04T15:01:37;5.97;;;5.38;;
23684;SDS011;12020;51.384;6.908;2023-12-04T15:08:44;6.20;;;5.60;;
23684;SDS011;12020;51.384;6.908;2023-12-04T15:22:45;5.90;;;4.88;;
23684;SDS011;12020;51.384;6.908;2023-12-04T15:25:30;5.72;;;5.13;;
23684;SDS011;12020;51.384;6.908;2023-12-04T15:34:28;5.57;;;4.82;;
23684;SDS011;12020;51.384;6.908;2023-12-04T16:00:25;7.13;;;5.43;;
23684;SDS011;12020;51.384;6.908;2023-12-04T18:21:44;9.15;;;7.57;;
23684;SDS011;12020;51.384;6.908;2023-12-04T18:24:13;8.68;;;7.88;;
23684;SDS011;12020;51.384;6.908;2023-12-04T18:26:42;8.57;;;7.78;;
23684;SDS011;12020;51.384;6.908;2023-12-04T18:29:13;8.93;;;8.02;;
23684;SDS011;12020;51.384;6.908;2023-12-04T18:31:39;9.00;;;8.20;;
23684;SDS011;12020;51.384;6.908;2023-12-04T18:34:13;8.88;;;8.07;;
23684;SDS011;12020;51.384;6.908;2023-12-04T18:54:52;9.20;;;8.30;;
23684;SDS011;12020;51.384;6.908;2023-12-04T18:59:50;9.32;;;8.40;;
23684;SDS011;12020;51.384;6.908;2023-12-04T19:02:27;9.25;;;8.30;;
23684;SDS011;12020;51.384;6.908;2023-12-04T19:04:54;10.05;;;8.93;;
23684;SDS011;12020;51.384;6.908;2023-12-04T19:09:57;9.38;;;8.50;;
23684;SDS011;12020;51.384;6.908;2023-12-04T19:15:10;11.05;;;9.55;;
23684;SDS011;12020;51.384;6.908;2023-12-04T19:20:17;9.63;;;8.63;;
23684;SDS011;12020;51.384;6.908;2023-12-04T19:25:43;9.70;;;8.60;;
23684;SDS011;12020;51.384;6.908;2023-12-04T19:28:11;9.68;;;8.75;;
23684;SDS011;12020;51.384;6.908;2023-12-04T19:30:39;9.73;;;8.75;;
23684;SDS011;12020;51.384;6.908;2023-12-04T19:33:08;8.93;;;8.13;;
23684;SDS011;12020;51.384;6.908;2023-12-04T19:35:34;9.15;;;8.25;;
23684;SDS011;12020;51.384;6.908;2023-12-04T19:38:01;8.88;;;7.95;;
23684;SDS011;12020;51.384;6.908;2023-12-04T19:40:29;8.48;;;7.68;;
23684;SDS011;12020;51.384;6.908;2023-12-04T19:45:29;8.70;;;7.90;;
23684;SDS011;12020;51.384;6.908;2023-12-04T19:47:57;8.52;;;7.72;;
23684;SDS011;12020;51.384;6.908;2023-12-04T19:50:22;8.73;;;7.82;;
23684;SDS011;12020;51.384;6.908;2023-12-04T19:53:06;9.00;;;7.60;;
23684;SDS011;12020;51.384;6.908;2023-12-04T19:58:09;8.47;;;7.67;;
23684;SDS011;12020;51.384;6.908;2023-12-04T20:00:43;8.45;;;7.65;;
23684;SDS011;12020;51.384;6.908;2023-12-04T20:03:13;7.65;;;6.95;;
23684;SDS011;12020;51.384;6.908;2023-12-04T20:05:46;8.35;;;7.55;;
23684;SDS011;12020;51.384;6.908;2023-12-04T20:08:22;8.10;;;7.40;;
23684;SDS011;12020;51.384;6.908;2023-12-04T20:10:49;8.25;;;7.45;;
23684;SDS011;12020;51.384;6.908;2023-12-04T20:13:19;7.18;;;6.57;;
23684;SDS011;12020;51.384;6.908;2023-12-04T20:18:15;7.75;;;7.05;;
23684;SDS011;12020;51.384;6.908;2023-12-04T20:20:42;7.10;;;6.40;;
23684;SDS011;12020;51.384;6.908;2023-12-04T20:23:15;7.50;;;6.80;;
23684;SDS011;12020;51.384;6.908;2023-12-04T20:25:43;7.40;;;6.70;;
23684;SDS011;12020;51.384;6.908;2023-12-04T20:28:10;7.30;;;6.60;;
23684;SDS011;12020;51.384;6.908;2023-12-04T20:30:44;7.18;;;6.50;;
23684;SDS011;12020;51.384;6.908;2023-12-04T20:33:16;7.00;;;6.32;;
23684;SDS011;12020;51.384;6.908;2023-12-04T20:35:44;7.53;;;6.82;;
23684;SDS011;12020;51.384;6.908;2023-12-04T20:38:12;7.30;;;6.60;;
23684;SDS011;12020;51.384;6.908;2023-12-04T20:40:46;7.10;;;6.45;;
23684;SDS011;12020;51.384;6.908;2023-12-04T20:43:13;6.95;;;6.35;;
23684;SDS011;12020;51.384;6.908;2023-12-04T20:51:17;7.10;;;6.50;;
23684;SDS011;12020;51.384;6.908;2023-12-04T20:56:18;7.37;;;6.67;;
23684;SDS011;12020;51.384;6.908;2023-12-04T20:58:46;7.18;;;6.57;;
23684;SDS011;12020;51.384;6.908;2023-12-04T21:01:24;8.00;;;7.30;;
23684;SDS011;12020;51.384;6.908;2023-12-04T21:03:52;7.70;;;7.00;;
23684;SDS011;12020;51.384;6.908;2023-12-04T21:06:19;7.80;;;7.10;;
23684;SDS011;12020;51.384;6.908;2023-12-04T21:08:59;7.90;;;7.10;;
23684;SDS011;12020;51.384;6.908;2023-12-04T21:17:38;8.32;;;7.45;;
23684;SDS011;12020;51.384;6.908;2023-12-04T21:20:13;7.72;;;7.03;;
23684;SDS011;12020;51.384;6.908;2023-12-04T21:25:33;8.07;;;7.28;;
23684;SDS011;12020;51.384;6.908;2023-12-04T21:28:05;7.95;;;7.25;;
23684;SDS011;12020;51.384;6.908;2023-12-04T21:30:38;7.70;;;6.90;;
23684;SDS011;12020;51.384;6.908;2023-12-04T21:38:32;7.57;;;6.87;;
23684;SDS011;12020;51.384;6.908;2023-12-04T21:41:05;8.20;;;7.40;;
23684;SDS011;12020;51.384;6.908;2023-12-04T21:43:37;7.25;;;6.60;;
23684;SDS011;12020;51.384;6.908;2023-12-04T21:46:06;7.90;;;7.20;;
23684;SDS011;12020;51.384;6.908;2023-12-04T21:48:36;7.97;;;7.18;;